• Join FlightAware (Why Join?)
  • Login
  • US Flag 
11:24AM EDT


 

Airport Tracker/Info


-or-


 

Live Flight TrackerFlight Track Log ✈ N3560F ✈ 09-Aug-2013 ✈ KCAK - KOWB

Flight Track Log - Related Links

Times and Time Zones

All times are in EDT time to prevent confusion due to time zone crossing. See the N3560F flight status page for this flight to view local times or setup timezone preferences in your user account.

Time Position Orientation Groundspeed Altitude Reporting Facility
EDT Latitude Longitude Course Direction KTS MPH feet Rate Location/Type
10:05AM 40.9389 -81.5369 229° Southwest 108 124 3,700  Level Indianapolis Center
10:06AM 40.9092 -81.5464 194° South 109 125 4,000 60 Climbing Indianapolis Center
10:07AM 40.8844 -81.5733 219° Southwest 122 140 3,900 -60 Descending Indianapolis Center
10:08AM 40.7733 -81.6258 229° Southwest  Level FlightAware Approximate
10:09AM 40.7524 -81.6580 229° Southwest  Level FlightAware Approximate
10:09AM 40.9067 -81.5964 322° Northwest 119 137 3,900  Level Indianapolis Center
10:10AM 40.7314 -81.6902 229° Southwest  Level FlightAware Approximate
10:10AM 40.9169 -81.5572 71° East 130 150 3,900  Level Indianapolis Center
10:11AM 40.7104 -81.7224 229° Southwest  Level FlightAware Approximate
10:11AM 40.8925 -81.5633 191° South 137 158 3,700  Level Indianapolis Center
10:12AM 40.8653 -81.5747 198° South 139 160 3,700 -240 Level Indianapolis Center
10:13AM 40.8344 -81.5953 207° Southwest 130 150 3,300 -360 Descending Indianapolis Center
10:14AM 40.8381 -81.6375 276° West 120 138 3,000 -180 Descending Indianapolis Center
10:15AM 40.8389 -81.6794 272° West 121 139 3,000 -60 Level Indianapolis Center
10:16AM 40.8328 -81.7183 258° West 113 130 2,900 -60 Descending Indianapolis Center
10:17AM 40.8122 -81.7461 226° Southwest 124 143 2,900  Level Indianapolis Center
10:18AM 40.7911 -81.7114 129° Southeast 122 140 3,000  Climbing Indianapolis Center
10:19AM 40.7850 -81.6731 102° East 127 146 2,900  Descending Indianapolis Center
10:20AM 40.7944 -81.6239 76° East 121 139 3,000 -60 Climbing Indianapolis Center
10:21AM 40.8106 -81.5922 56° Northeast 111 128 2,800  Descending Indianapolis Center
10:22AM 40.8308 -81.5644 46° Northeast 104 120 3,000 -180 Climbing Indianapolis Center
10:23AM 40.8511 -81.5328 50° Northeast 108 124 2,500 -660 Descending Indianapolis Center
10:24AM 40.8700 -81.5089 44° Northeast 102 117 1,700 -420 Descending Indianapolis Center
10:25AM 40.8856 -81.4867 47° Northeast 90 104 1,700 -180 Level Indianapolis Center
10:26AM 40.9047 -81.4519 54° Northeast 93 107 1,400 -300 Descending Indianapolis Center
10:28AM 40.8698 -81.4918 221° Southwest  Level FlightAware Approximate
10:35AM 40.7175 -81.7116 229° Southwest  Level FlightAware Approximate
10:36AM 40.6965 -81.7438 229° Southwest  Level FlightAware Approximate
10:37AM 40.6755 -81.7759 229° Southwest  Level FlightAware Approximate
10:38AM 40.6545 -81.8080 229° Southwest  Level FlightAware Approximate
10:39AM 40.6335 -81.8401 229° Southwest  Level FlightAware Approximate
10:40AM 40.6125 -81.8722 229° Southwest  Level FlightAware Approximate
10:41AM 40.5914 -81.9043 229° Southwest  Level FlightAware Approximate
10:42AM 40.5703 -81.9362 229° Southwest  Level FlightAware Approximate
10:43AM 40.5491 -81.9681 229° Southwest  Level FlightAware Approximate
10:44AM 40.5279 -81.9999 229° Southwest  Level FlightAware Approximate
10:45AM 40.5067 -82.0317 229° Southwest  Level FlightAware Approximate
10:46AM 40.4855 -82.0635 229° Southwest  Level FlightAware Approximate
10:47AM 40.4643 -82.0953 229° Southwest  Level FlightAware Approximate
10:48AM 40.4428 -82.1268 227° Southwest  Level FlightAware Approximate
10:49AM 40.4208 -82.1576 227° Southwest  Level FlightAware Approximate
10:50AM 40.3988 -82.1884 227° Southwest  Level FlightAware Approximate
10:51AM 40.3768 -82.2192 227° Southwest  Level FlightAware Approximate
10:52AM 40.3557 -82.2511 231° Southwest  Level FlightAware Approximate
10:53AM 40.3355 -82.2839 231° Southwest  Level FlightAware Approximate
10:54AM 40.3153 -82.3167 231° Southwest  Level FlightAware Approximate
10:55AM 40.2950 -82.3495 231° Southwest  Level FlightAware Approximate
10:56AM 40.2748 -82.3822 231° Southwest  Level FlightAware Approximate
10:57AM 40.2545 -82.4150 231° Southwest  Level FlightAware Approximate
10:58AM 40.2342 -82.4477 231° Southwest  Level FlightAware Approximate
10:59AM 40.2140 -82.4804 231° Southwest  Level FlightAware Approximate
11:00AM 40.1937 -82.5131 231° Southwest  Level FlightAware Approximate
11:01AM 40.1734 -82.5458 231° Southwest  Level FlightAware Approximate
11:02AM 40.1531 -82.5784 231° Southwest  Level FlightAware Approximate
11:03AM 40.1344 -82.6127 235° Southwest  Level FlightAware Approximate
11:04AM 40.1160 -82.6472 235° Southwest  Level FlightAware Approximate
11:05AM 40.0977 -82.6817 235° Southwest  Level FlightAware Approximate
11:06AM 40.0793 -82.7162 235° Southwest  Level FlightAware Approximate
11:07AM 40.0609 -82.7507 235° Southwest  Level FlightAware Approximate
11:08AM 40.0425 -82.7852 235° Southwest  Level FlightAware Approximate
11:09AM 40.0240 -82.8196 235° Southwest  Level FlightAware Approximate
11:10AM 40.0056 -82.8540 235° Southwest  Level FlightAware Approximate
11:11AM 39.9872 -82.8885 235° Southwest  Level FlightAware Approximate
11:12AM 39.9687 -82.9228 235° Southwest  Level FlightAware Approximate
11:13AM 39.9503 -82.9572 235° Southwest  Level FlightAware Approximate
11:14AM 39.9318 -82.9916 235° Southwest  Level FlightAware Approximate
11:15AM 39.9133 -83.0259 235° Southwest  Level FlightAware Approximate
11:16AM 39.8948 -83.0602 235° Southwest  Level FlightAware Approximate
11:17AM 39.8763 -83.0945 235° Southwest  Level FlightAware Approximate
11:18AM 39.8578 -83.1288 235° Southwest  Level FlightAware Approximate
11:19AM 39.8393 -83.1630 235° Southwest  Level FlightAware Approximate
11:20AM 39.8208 -83.1973 235° Southwest  Level FlightAware Approximate
11:21AM 39.8022 -83.2315 235° Southwest  Level FlightAware Approximate
11:22AM 39.7837 -83.2657 235° Southwest  Level FlightAware Approximate
11:23AM 39.7651 -83.2999 235° Southwest  Level FlightAware Approximate
11:24AM 39.7465 -83.3340 235° Southwest  Level FlightAware Approximate
11:25AM 39.7280 -83.3682 235° Southwest  Level FlightAware Approximate
11:26AM 39.7094 -83.4023 235° Southwest  Level FlightAware Approximate
11:27AM 39.6908 -83.4364 235° Southwest  Level FlightAware Approximate
11:28AM 39.6721 -83.4705 235° Southwest  Level FlightAware Approximate
11:29AM 39.6535 -83.5045 235° Southwest  Level FlightAware Approximate
11:30AM 39.6348 -83.5386 235° Southwest  Level FlightAware Approximate
11:31AM 39.6161 -83.5726 235° Southwest  Level FlightAware Approximate
11:32AM 39.5975 -83.6066 235° Southwest  Level FlightAware Approximate
11:33AM 39.5788 -83.6405 234° Southwest  Level FlightAware Approximate
11:34AM 39.5601 -83.6745 234° Southwest  Level FlightAware Approximate
11:35AM 39.5414 -83.7085 234° Southwest  Level FlightAware Approximate
11:36AM 39.5226 -83.7424 234° Southwest  Level FlightAware Approximate
11:37AM 39.5039 -83.7763 234° Southwest  Level FlightAware Approximate
11:38AM 39.4857 -83.8107 236° Southwest  Level FlightAware Approximate
11:39AM 39.4677 -83.8452 236° Southwest  Level FlightAware Approximate
11:40AM 39.4497 -83.8797 236° Southwest  Level FlightAware Approximate
11:41AM 39.4317 -83.9142 236° Southwest  Level FlightAware Approximate
11:42AM 39.4137 -83.9487 236° Southwest  Level FlightAware Approximate
11:43AM 39.3956 -83.9831 236° Southwest  Level FlightAware Approximate
11:44AM 39.3775 -84.0176 236° Southwest  Level FlightAware Approximate
11:45AM 39.3595 -84.0520 236° Southwest  Level FlightAware Approximate
11:46AM 39.3414 -84.0864 236° Southwest  Level FlightAware Approximate
11:47AM 39.3233 -84.1208 236° Southwest  Level FlightAware Approximate
11:48AM 39.3052 -84.1552 236° Southwest  Level FlightAware Approximate
11:49AM 39.2870 -84.1895 236° Southwest  Level FlightAware Approximate
11:50AM 39.2689 -84.2238 236° Southwest  Level FlightAware Approximate
11:51AM 39.2508 -84.2581 236° Southwest  Level FlightAware Approximate
11:52AM 39.2326 -84.2924 236° Southwest  Level FlightAware Approximate
11:53AM 39.2145 -84.3267 236° Southwest  Level FlightAware Approximate
11:54AM 39.1963 -84.3609 236° Southwest  Level FlightAware Approximate
11:55AM 39.1781 -84.3952 236° Southwest  Level FlightAware Approximate
11:56AM 39.1595 -84.4290 233° Southwest  Level FlightAware Approximate
11:57AM 39.1400 -84.4621 233° Southwest  Level FlightAware Approximate
11:58AM 39.1206 -84.4951 233° Southwest  Level FlightAware Approximate
11:59AM 39.1012 -84.5282 233° Southwest  Level FlightAware Approximate
12:00PM 39.0818 -84.5612 233° Southwest  Level FlightAware Approximate
12:01PM 39.0624 -84.5943 233° Southwest  Level FlightAware Approximate
12:02PM 39.0429 -84.6273 233° Southwest  Level FlightAware Approximate
12:03PM 39.0235 -84.6602 233° Southwest  Level FlightAware Approximate
12:04PM 39.0040 -84.6932 233° Southwest  Level FlightAware Approximate
12:05PM 38.9794 -84.7193 216° Southwest  Level FlightAware Approximate
12:06PM 38.9534 -84.7437 216° Southwest  Level FlightAware Approximate
12:07PM 38.9273 -84.7680 216° Southwest  Level FlightAware Approximate
12:08PM 38.9013 -84.7923 216° Southwest  Level FlightAware Approximate
12:09PM 38.8753 -84.8166 216° Southwest  Level FlightAware Approximate
12:10PM 38.8493 -84.8409 216° Southwest  Level FlightAware Approximate
12:11PM 38.8232 -84.8652 216° Southwest  Level FlightAware Approximate
12:12PM 38.7972 -84.8894 216° Southwest  Level FlightAware Approximate
12:13PM 38.7712 -84.9137 216° Southwest  Level FlightAware Approximate
12:14PM 38.7453 -84.9381 218° Southwest  Level FlightAware Approximate
12:15PM 38.7199 -84.9635 218° Southwest  Level FlightAware Approximate
12:16PM 38.6946 -84.9889 218° Southwest  Level FlightAware Approximate
12:17PM 38.6692 -85.0142 218° Southwest  Level FlightAware Approximate
12:18PM 38.6438 -85.0396 218° Southwest  Level FlightAware Approximate
12:19PM 38.6185 -85.0649 218° Southwest  Level FlightAware Approximate
12:20PM 38.5931 -85.0902 218° Southwest  Level FlightAware Approximate
12:21PM 38.5678 -85.1156 218° Southwest  Level FlightAware Approximate
12:22PM 38.5424 -85.1409 218° Southwest  Level FlightAware Approximate
12:23PM 38.5172 -85.1663 218° Southwest  Level FlightAware Approximate
12:24PM 38.4919 -85.1917 218° Southwest  Level FlightAware Approximate
12:25PM 38.4666 -85.2171 218° Southwest  Level FlightAware Approximate
12:26PM 38.4413 -85.2425 218° Southwest  Level FlightAware Approximate
12:27PM 38.4160 -85.2678 218° Southwest  Level FlightAware Approximate
12:28PM 38.3906 -85.2932 218° Southwest  Level FlightAware Approximate
12:29PM 38.3653 -85.3185 218° Southwest  Level FlightAware Approximate
12:30PM 38.3400 -85.3438 218° Southwest  Level FlightAware Approximate
12:31PM 38.3147 -85.3690 218° Southwest  Level FlightAware Approximate
12:32PM 38.2893 -85.3943 218° Southwest  Level FlightAware Approximate
12:33PM 38.2640 -85.4195 218° Southwest  Level FlightAware Approximate
12:34PM 38.2386 -85.4447 218° Southwest  Level FlightAware Approximate
12:35PM 38.2124 -85.4684 215° Southwest  Level FlightAware Approximate
12:36PM 38.1859 -85.4916 215° Southwest  Level FlightAware Approximate
12:37PM 38.1594 -85.5148 215° Southwest  Level FlightAware Approximate
12:38PM 38.1329 -85.5379 215° Southwest  Level FlightAware Approximate
12:39PM 38.1064 -85.5611 215° Southwest  Level FlightAware Approximate
12:40PM 38.0933 -85.5965 254° West  Level FlightAware Approximate
12:41PM 38.0844 -85.6358 254° West  Level FlightAware Approximate
12:42PM 38.0756 -85.6751 254° West  Level FlightAware Approximate
12:43PM 38.0667 -85.7144 254° West  Level FlightAware Approximate
12:44PM 38.0578 -85.7537 254° West  Level FlightAware Approximate
12:45PM 38.0490 -85.7929 254° West  Level FlightAware Approximate
12:46PM 38.0401 -85.8322 254° West  Level FlightAware Approximate
12:47PM 38.0311 -85.8714 254° West  Level FlightAware Approximate
12:48PM 38.0222 -85.9107 254° West  Level FlightAware Approximate
12:49PM 38.0132 -85.9499 254° West  Level FlightAware Approximate
12:50PM 38.0043 -85.9891 254° West  Level FlightAware Approximate
12:51PM 37.9953 -86.0283 254° West  Level FlightAware Approximate
12:52PM 37.9863 -86.0675 254° West  Level FlightAware Approximate
12:53PM 37.9773 -86.1067 254° West  Level FlightAware Approximate
12:54PM 37.9683 -86.1458 254° West  Level FlightAware Approximate
12:55PM 37.9593 -86.1850 254° West  Level FlightAware Approximate
12:56PM 37.9503 -86.2241 254° West  Level FlightAware Approximate
12:57PM 37.9412 -86.2633 254° West  Level FlightAware Approximate
12:58PM 37.9322 -86.3024 254° West  Level FlightAware Approximate
12:59PM 37.9231 -86.3416 254° West  Level FlightAware Approximate
01:00PM 37.9140 -86.3807 254° West  Level FlightAware Approximate
01:01PM 37.9049 -86.4198 254° West  Level FlightAware Approximate
01:02PM 37.8958 -86.4589 254° West  Level FlightAware Approximate
01:03PM 37.8867 -86.4980 254° West  Level FlightAware Approximate
01:04PM 37.8775 -86.5370 254° West  Level FlightAware Approximate
01:05PM 37.8684 -86.5761 253° West  Level FlightAware Approximate
01:06PM 37.8588 -86.6150 253° West  Level FlightAware Approximate
01:07PM 37.8491 -86.6539 253° West  Level FlightAware Approximate
01:08PM 37.8394 -86.6927 252° West  Level FlightAware Approximate
01:09PM 37.8298 -86.7316 252° West  Level FlightAware Approximate
01:10PM 37.8200 -86.7704 252° West  Level FlightAware Approximate
01:11PM 37.8103 -86.8092 252° West  Level FlightAware Approximate
01:12PM 37.8006 -86.8480 252° West  Level FlightAware Approximate